Time;durP1;ratioP1;P1;durP2;ratioP2;P2;SDS_P1;SDS_P2;PMS_P1;PMS_P2;Temp;Humidity;BMP_temperature;BMP_pressure;BME280_temperature;BME280_humidity;BME280_pressure;Samples;Min_cycle;Max_cycle;Signal;HPM_P1;HPM_P2
2022/06/11 00:00:06;;;;;;;4.07;3.10;;;;;;;;;;4822371;29;20057;-81
2022/06/11 00:02:55;;;;;;;3.45;3.15;;;;;;;;;;4820906;29;20061;-80
2022/06/11 00:05:41;;;;;;;5.18;3.17;;;;;;;;;;4783413;29;20082;-80
2022/06/11 00:08:16;;;;;;;3.25;3.05;;;;;;;;;;4787799;29;20391;-80
2022/06/11 00:11:14;;;;;;;3.03;2.83;;;;;;;;;;4789752;29;20050;-80
2022/06/11 00:14:03;;;;;;;3.20;2.90;;;;;;;;;;4814834;29;20053;-80
2022/06/11 00:16:52;;;;;;;2.92;2.72;;;;;;;;;;4791907;29;20058;-81
2022/06/11 00:19:29;;;;;;;3.55;2.83;;;;;;;;;;4794969;29;20051;-80
2022/06/11 00:22:21;;;;;;;;;;;;;;;;;;;;;
2022/06/11 00:33:06;;;;;;;8.35;3.35;;;;;;;;;;4783526;29;20548;-83
2022/06/11 00:35:51;;;;;;;;;;;;;;;;;;4789615;29;20091;-81
2022/06/11 00:38:34;;;;;;;5.65;3.00;;;;;;;;;;4800851;29;20027;-81
2022/06/11 00:41:50;;;;;;;3.58;3.08;;;;;;;;;;4773622;30;20081;-81
2022/06/11 00:44:38;;;;;;;;;;;;;;;;;;;;;
2022/06/11 00:51:13;;;;;;;5.90;2.83;;;;;;;;;;4775789;30;20089;-81
2022/06/11 00:54:16;;;;;;;3.17;2.90;;;;;;;;;;4791870;30;20070;-81
2022/06/11 00:58:07;;;;;;;5.45;3.10;;;;;;;;;;4741677;30;20134;-81
2022/06/11 01:00:55;;;;;;;4.32;3.00;;;;;;;;;;4736256;30;20930;-81
2022/06/11 01:08:34;;;;;;;7.22;3.20;;;;;;;;;;4685890;30;20163;-81
2022/06/11 01:15:31;;;;;;;3.78;3.00;;;;;;;;;;4845668;29;20217;-80
2022/06/11 01:19:12;;;;;;;3.92;3.13;;;;;;;;;;4872618;24;20126;-81
2022/06/11 01:22:27;;;;;;;4.15;3.08;;;;;;;;;;4754574;30;20411;-80
2022/06/11 01:25:08;;;;;;;;;;;;;;;;;;4765061;30;20051;-81
2022/06/11 01:27:56;;;;;;;3.00;2.80;;;;;;;;;;4782586;30;19929;-81
2022/06/11 01:31:00;;;;;;;3.10;2.90;;;;;;;;;;4785953;29;20233;-80
2022/06/11 01:36:41;;;;;;;5.78;3.45;;;;;;;;;;4785564;29;20134;-82
2022/06/11 01:39:51;;;;;;;3.58;3.28;;;;;;;;;;4762590;29;20061;-82
2022/06/11 01:42:52;;;;;;;4.88;3.13;;;;;;;;;;4802752;29;20080;-81
2022/06/11 01:45:56;;;;;;;3.20;2.90;;;;;;;;;;4771103;30;20047;-82
2022/06/11 01:48:44;;;;;;;4.25;3.45;;;;;;;;;;4771892;30;20086;-81
2022/06/11 01:51:50;;;;;;;7.32;3.45;;;;;;;;;;4785458;29;20057;-81
2022/06/11 01:54:34;;;;;;;3.55;3.10;;;;;;;;;;4770869;30;20055;-80
2022/06/11 01:57:22;;;;;;;3.28;2.95;;;;;;;;;;4751442;30;20150;-79
2022/06/11 02:00:18;;;;;;;4.18;3.30;;;;;;;;;;4804364;29;20145;-80
2022/06/11 02:07:15;;;;;;;6.03;2.92;;;;;;;;;;4840135;29;20033;-80
2022/06/11 02:10:05;;;;;;;3.10;2.90;;;;;;;;;;4806931;29;20057;-80
2022/06/11 02:13:25;;;;;;;2.78;2.58;;;;;;;;;;4838750;29;20089;-80
2022/06/11 02:16:18;;;;;;;6.03;2.88;;;;;;;;;;4840458;29;20503;-79
2022/06/11 02:18:54;;;;;;;4.93;3.20;;;;;;;;;;4839474;29;20461;-80
2022/06/11 02:21:38;;;;;;;3.28;2.70;;;;;;;;;;4842191;29;20057;-80
2022/06/11 02:24:30;;;;;;;8.50;3.13;;;;;;;;;;4811994;29;20057;-80
2022/06/11 02:27:22;;;;;;;6.50;2.90;;;;;;;;;;4809165;29;20054;-79
2022/06/11 02:30:25;;;;;;;3.50;2.88;;;;;;;;;;4836239;29;20134;-80
2022/06/11 02:32:58;;;;;;;5.88;2.90;;;;;;;;;;4829320;29;20080;-79
2022/06/11 02:35:40;;;;;;;3.42;3.22;;;;;;;;;;4846149;29;20211;-80
2022/06/11 02:38:14;;;;;;;5.03;2.88;;;;;;;;;;4816290;29;20149;-80
2022/06/11 02:41:20;;;;;;;3.25;2.92;;;;;;;;;;4822620;29;20038;-80
2022/06/11 02:47:35;;;;;;;3.20;2.88;;;;;;;;;;4822711;29;20062;-80
2022/06/11 02:50:03;;;;;;;3.35;2.75;;;;;;;;;;4803995;29;20060;-79
2022/06/11 02:52:31;;;;;;;7.70;3.05;;;;;;;;;;4808557;29;20054;-79
2022/06/11 02:54:59;;;;;;;3.33;3.03;;;;;;;;;;4799604;29;20080;-80
2022/06/11 02:57:29;;;;;;;3.72;2.70;;;;;;;;;;4811821;29;20148;-80
2022/06/11 02:59:58;;;;;;;5.75;2.80;;;;;;;;;;4814664;29;20046;-79
2022/06/11 03:02:26;;;;;;;3.63;2.72;;;;;;;;;;4806249;29;20054;-80
2022/06/11 03:04:54;;;;;;;5.70;3.10;;;;;;;;;;4799039;29;20054;-78
2022/06/11 03:07:22;;;;;;;4.38;2.90;;;;;;;;;;4810841;29;20042;-80
2022/06/11 03:09:51;;;;;;;5.53;3.20;;;;;;;;;;4808277;29;20054;-80
2022/06/11 03:12:19;;;;;;;4.13;3.22;;;;;;;;;;4804267;29;20544;-80
2022/06/11 03:14:47;;;;;;;8.25;4.53;;;;;;;;;;4836441;29;20042;-80
2022/06/11 03:17:16;;;;;;;4.43;3.78;;;;;;;;;;4842160;29;20050;-81
2022/06/11 03:19:44;;;;;;;7.63;3.78;;;;;;;;;;4843498;29;20050;-80
2022/06/11 03:22:11;;;;;;;5.25;4.18;;;;;;;;;;4825970;29;20054;-80
2022/06/11 03:24:39;;;;;;;7.78;4.40;;;;;;;;;;4837477;29;20042;-80
2022/06/11 03:27:06;;;;;;;5.07;4.38;;;;;;;;;;4828146;29;20110;-80
2022/06/11 03:29:33;;;;;;;7.65;4.25;;;;;;;;;;4839842;29;20056;-78
2022/06/11 03:32:01;;;;;;;5.63;4.20;;;;;;;;;;4859489;29;20065;-78
2022/06/11 03:34:28;;;;;;;4.60;4.20;;;;;;;;;;4857693;29;20085;-79
2022/06/11 03:36:57;;;;;;;3.95;3.75;;;;;;;;;;4858493;29;20057;-79
2022/06/11 03:39:24;;;;;;;4.13;3.83;;;;;;;;;;4841383;29;20037;-79
2022/06/11 03:41:53;;;;;;;4.22;3.25;;;;;;;;;;4826118;29;20042;-79
2022/06/11 03:44:21;;;;;;;4.20;3.28;;;;;;;;;;4857471;29;20103;-79
2022/06/11 03:46:48;;;;;;;3.40;3.10;;;;;;;;;;4859358;29;20049;-79
2022/06/11 03:49:16;;;;;;;3.35;3.15;;;;;;;;;;4840830;29;20050;-79
2022/06/11 03:51:44;;;;;;;6.80;3.30;;;;;;;;;;4857382;29;20469;-79
2022/06/11 03:54:12;;;;;;;3.28;3.08;;;;;;;;;;4857564;29;20132;-79
2022/06/11 03:56:40;;;;;;;3.50;3.00;;;;;;;;;;4832949;29;20106;-79
2022/06/11 03:59:08;;;;;;;3.45;3.10;;;;;;;;;;4853980;29;20404;-80
2022/06/11 04:01:37;;;;;;;4.13;3.45;;;;;;;;;;4825061;29;20714;-79
2022/06/11 04:04:05;;;;;;;4.90;4.20;;;;;;;;;;4845369;29;20053;-78
2022/06/11 04:06:38;;;;;;;5.15;3.90;;;;;;;;;;4844931;29;20127;-80
2022/06/11 04:09:06;;;;;;;4.72;4.05;;;;;;;;;;4839950;29;20053;-80
2022/06/11 04:11:34;;;;;;;6.13;3.97;;;;;;;;;;4852059;29;20050;-79
2022/06/11 04:14:02;;;;;;;4.18;3.85;;;;;;;;;;4806217;29;20051;-80
2022/06/11 04:16:32;;;;;;;6.97;4.35;;;;;;;;;;4839479;29;20750;-79
2022/06/11 04:19:01;;;;;;;4.68;4.28;;;;;;;;;;4824026;29;20052;-79
2022/06/11 04:21:29;;;;;;;5.40;4.65;;;;;;;;;;4833371;29;20038;-79
2022/06/11 04:23:57;;;;;;;5.45;4.95;;;;;;;;;;4818488;29;20045;-80
2022/06/11 04:26:29;;;;;;;5.63;5.05;;;;;;;;;;4824209;29;20053;-77
2022/06/11 04:28:57;;;;;;;6.97;4.88;;;;;;;;;;4844908;29;20049;-80
2022/06/11 04:31:25;;;;;;;7.90;5.63;;;;;;;;;;4839392;29;20045;-81
2022/06/11 04:33:53;;;;;;;10.68;5.65;;;;;;;;;;4824711;29;20049;-79
2022/06/11 04:36:22;;;;;;;15.05;6.32;;;;;;;;;;4841625;29;20053;-80
2022/06/11 04:38:50;;;;;;;6.93;5.68;;;;;;;;;;4840355;29;20046;-79
2022/06/11 04:41:17;;;;;;;12.88;5.18;;;;;;;;;;4840688;29;20044;-79
2022/06/11 04:43:45;;;;;;;8.85;5.53;;;;;;;;;;4827619;29;20049;-79
2022/06/11 04:46:13;;;;;;;7.28;5.28;;;;;;;;;;4826378;29;20052;-79
2022/06/11 04:48:40;;;;;;;9.13;4.40;;;;;;;;;;4834781;29;20053;-79
2022/06/11 04:51:14;;;;;;;11.27;4.20;;;;;;;;;;4824659;24;20056;-80
2022/06/11 04:53:50;;;;;;;;;;;;;;;;;;4836712;29;20049;-79
2022/06/11 04:56:42;;;;;;;22.40;5.15;;;;;;;;;;4845006;29;19934;-80
2022/06/11 04:59:59;;;;;;;8.43;4.80;;;;;;;;;;4862365;29;20132;-78
2022/06/11 05:02:57;;;;;;;12.00;5.80;;;;;;;;;;4830834;29;20042;-79
2022/06/11 05:05:52;;;;;;;12.30;6.00;;;;;;;;;;4845141;29;20053;-79
2022/06/11 05:08:26;;;;;;;5.65;5.10;;;;;;;;;;4849273;29;20245;-80
2022/06/11 05:11:34;;;;;;;5.30;4.85;;;;;;;;;;4831338;29;20038;-79
2022/06/11 05:14:28;;;;;;;6.00;5.00;;;;;;;;;;4818127;29;20054;-79
2022/06/11 05:17:28;;;;;;;6.43;5.03;;;;;;;;;;4827043;29;20042;-80
2022/06/11 05:20:05;;;;;;;6.07;5.47;;;;;;;;;;4825975;29;20050;-80
2022/06/11 05:23:13;;;;;;;6.78;5.78;;;;;;;;;;4832048;29;20419;-80
2022/06/11 05:25:48;;;;;;;5.78;5.28;;;;;;;;;;4827217;29;20474;-79
2022/06/11 05:28:36;;;;;;;5.25;4.95;;;;;;;;;;4830187;29;20053;-80
2022/06/11 05:31:59;;;;;;;5.28;4.97;;;;;;;;;;4827968;29;20050;-80
2022/06/11 05:34:54;;;;;;;5.55;5.03;;;;;;;;;;4844713;29;20057;-79
2022/06/11 05:37:42;;;;;;;5.40;5.00;;;;;;;;;;4813909;29;20102;-79
2022/06/11 05:40:35;;;;;;;6.35;4.88;;;;;;;;;;4795451;29;20105;-79
2022/06/11 05:43:22;;;;;;;4.80;4.50;;;;;;;;;;4784589;29;20057;-79
2022/06/11 05:46:37;;;;;;;;;;;;;;;;;;;;;
2022/06/11 05:49:14;;;;;;;5.03;4.70;;;;;;;;;;4840358;29;20145;-79
2022/06/11 05:51:57;;;;;;;4.70;4.40;;;;;;;;;;4840825;29;20094;-80
2022/06/11 05:54:35;;;;;;;5.68;5.22;;;;;;;;;;4819244;29;20493;-80
2022/06/11 05:57:28;;;;;;;5.20;4.70;;;;;;;;;;4842622;29;20054;-79
2022/06/11 06:00:07;;;;;;;5.55;4.57;;;;;;;;;;4831981;29;20053;-81
2022/06/11 06:02:52;;;;;;;5.55;5.15;;;;;;;;;;4846926;29;20041;-79
2022/06/11 06:05:40;;;;;;;5.35;4.85;;;;;;;;;;4845614;29;20042;-80
2022/06/11 06:08:16;;;;;;;5.47;5.07;;;;;;;;;;4845057;29;20045;-79
2022/06/11 06:10:53;;;;;;;6.72;5.40;;;;;;;;;;4818234;29;20077;-79
2022/06/11 06:13:50;;;;;;;5.65;5.25;;;;;;;;;;4836056;29;20046;-80
2022/06/11 06:16:47;;;;;;;6.93;4.97;;;;;;;;;;4825458;29;20159;-78
2022/06/11 06:19:20;;;;;;;5.40;4.90;;;;;;;;;;4819195;29;20101;-78
2022/06/11 06:22:05;;;;;;;5.57;5.20;;;;;;;;;;4802820;29;20077;-77
2022/06/11 06:24:50;;;;;;;5.32;4.85;;;;;;;;;;4819339;29;20057;-79
2022/06/11 06:27:26;;;;;;;9.23;4.85;;;;;;;;;;4803487;29;20066;-78
2022/06/11 06:30:19;;;;;;;5.43;4.93;;;;;;;;;;4833511;29;20116;-79
2022/06/11 06:33:12;;;;;;;4.72;4.32;;;;;;;;;;4833197;29;20073;-79
2022/06/11 06:36:00;;;;;;;5.10;4.70;;;;;;;;;;4831853;29;20061;-79
2022/06/11 06:39:14;;;;;;;5.43;4.95;;;;;;;;;;4832478;29;20153;-79
2022/06/11 06:41:55;;;;;;;5.38;4.97;;;;;;;;;;4830062;29;20464;-79
2022/06/11 06:49:34;;;;;;;6.47;4.68;;;;;;;;;;4849945;29;20169;-79
2022/06/11 06:52:59;;;;;;;7.00;4.93;;;;;;;;;;4767400;29;20054;-80
2022/06/11 06:56:33;;;;;;;7.32;4.82;;;;;;;;;;4786271;29;20406;-79
2022/06/11 07:03:06;;;;;;;6.82;4.78;;;;;;;;;;4739275;29;20615;-79
2022/06/11 07:05:56;;;;;;;5.10;4.70;;;;;;;;;;4794768;29;20071;-80
2022/06/11 07:08:55;;;;;;;6.85;5.07;;;;;;;;;;4794970;29;20119;-80
2022/06/11 07:11:26;;;;;;;6.18;4.85;;;;;;;;;;4794495;29;20054;-80
2022/06/11 07:14:03;;;;;;;4.82;4.43;;;;;;;;;;4842959;29;20125;-80
2022/06/11 07:17:07;;;;;;;7.45;6.03;;;;;;;;;;4838525;29;20297;-79
2022/06/11 07:20:07;;;;;;;6.40;4.47;;;;;;;;;;4848888;29;20095;-80
2022/06/11 07:22:46;;;;;;;4.30;4.00;;;;;;;;;;4834560;29;20105;-79
2022/06/11 07:25:39;;;;;;;4.65;4.28;;;;;;;;;;4835931;29;20060;-80
2022/06/11 07:28:58;;;;;;;4.22;3.92;;;;;;;;;;4851395;29;20042;-79
2022/06/11 07:31:52;;;;;;;4.18;3.90;;;;;;;;;;4835585;29;20129;-80
2022/06/11 07:34:40;;;;;;;;;;;;;;;;;;4848385;29;20052;-80
2022/06/11 07:37:39;;;;;;;4.70;3.65;;;;;;;;;;4835837;29;19932;-80
2022/06/11 07:40:24;;;;;;;4.15;3.33;;;;;;;;;;4845932;29;20083;-80
2022/06/11 07:43:17;;;;;;;5.03;3.50;;;;;;;;;;4788455;29;20078;-79
2022/06/11 07:46:23;;;;;;;4.78;3.80;;;;;;;;;;4756223;30;20079;-79
2022/06/11 07:49:55;;;;;;;3.55;3.22;;;;;;;;;;4755207;30;20071;-80
2022/06/11 07:52:46;;;;;;;;;;;;;;;;;;4753146;30;20071;-80
2022/06/11 07:55:59;;;;;;;3.35;3.15;;;;;;;;;;4733755;30;20020;-79
2022/06/11 07:59:10;;;;;;;3.45;3.13;;;;;;;;;;4719126;30;20107;-81
2022/06/11 08:01:48;;;;;;;7.22;3.33;;;;;;;;;;4748552;30;20063;-83
2022/06/11 08:04:38;;;;;;;3.90;3.35;;;;;;;;;;4751714;30;20082;-80
2022/06/11 08:07:51;;;;;;;5.15;2.80;;;;;;;;;;4756896;30;20435;-81
2022/06/11 08:10:44;;;;;;;4.07;3.08;;;;;;;;;;4742098;30;20409;-81
2022/06/11 08:16:41;;;;;;;3.13;2.88;;;;;;;;;;4828547;29;20041;-80
2022/06/11 08:20:07;;;;;;;3.30;3.10;;;;;;;;;;4826001;29;20681;-80
2022/06/11 08:23:15;;;;;;;3.20;2.90;;;;;;;;;;4843715;29;20064;-81
2022/06/11 08:26:35;;;;;;;3.00;2.72;;;;;;;;;;4842030;29;20162;-81
2022/06/11 08:37:25;;;;;;;;;;;;;;;;;;;;;
2022/06/11 08:40:44;;;;;;;3.28;2.63;;;;;;;;;;4777449;30;20050;-80
2022/06/11 08:44:13;;;;;;;3.17;2.90;;;;;;;;;;4746397;30;20119;-80
2022/06/11 08:47:21;;;;;;;2.80;2.60;;;;;;;;;;4724517;30;20056;-80
2022/06/11 08:50:20;;;;;;;5.68;2.60;;;;;;;;;;4676298;30;20092;-80
2022/06/11 08:52:58;;;;;;;2.90;2.70;;;;;;;;;;4701914;30;20056;-79
2022/06/11 08:56:33;;;;;;;3.58;2.60;;;;;;;;;;4732209;30;20071;-79
2022/06/11 09:02:46;;;;;;;2.67;2.35;;;;;;;;;;4794475;29;20104;-81
2022/06/11 09:05:22;;;;;;;3.05;2.20;;;;;;;;;;4821313;29;20053;-80
2022/06/11 09:08:31;;;;;;;4.28;2.10;;;;;;;;;;4832129;29;20058;-78
2022/06/11 09:11:40;;;;;;;2.53;1.85;;;;;;;;;;4836092;29;20053;-80
2022/06/11 09:14:41;;;;;;;1.50;1.40;;;;;;;;;;4807351;29;20081;-80
2022/06/11 09:18:05;;;;;;;1.97;1.57;;;;;;;;;;4829555;29;20041;-80
2022/06/11 09:21:24;;;;;;;1.58;1.48;;;;;;;;;;4851188;29;20064;-81
2022/06/11 09:24:16;;;;;;;1.23;1.23;;;;;;;;;;4845939;29;20057;-81
2022/06/11 09:27:51;;;;;;;1.63;1.52;;;;;;;;;;4740481;29;20067;-80
2022/06/11 09:31:23;;;;;;;2.30;1.48;;;;;;;;;;4773803;29;20047;-79
2022/06/11 09:35:25;;;;;;;3.15;1.40;;;;;;;;;;4787501;29;20050;-82
2022/06/11 09:38:38;;;;;;;1.70;1.60;;;;;;;;;;4787778;29;20061;-82
2022/06/11 09:41:23;;;;;;;2.15;1.60;;;;;;;;;;4808116;29;20059;-79
2022/06/11 09:44:00;;;;;;;2.20;2.03;;;;;;;;;;4794700;29;20050;-78
2022/06/11 09:46:51;;;;;;;3.65;1.50;;;;;;;;;;4780028;29;20141;-78
2022/06/11 09:49:25;;;;;;;2.72;1.58;;;;;;;;;;4815909;29;20054;-80
2022/06/11 09:52:20;;;;;;;1.50;1.40;;;;;;;;;;4825600;24;20385;-80
2022/06/11 09:54:55;;;;;;;2.42;1.70;;;;;;;;;;4848337;29;20040;-80
2022/06/11 09:57:54;;;;;;;1.70;1.55;;;;;;;;;;4852778;29;20052;-80
2022/06/11 10:01:08;;;;;;;2.38;1.50;;;;;;;;;;4843731;29;20417;-79
2022/06/11 10:04:18;;;;;;;2.00;1.60;;;;;;;;;;4734181;30;20133;-79
2022/06/11 10:07:33;;;;;;;3.03;2.80;;;;;;;;;;4728722;30;20049;-80
2022/06/11 10:10:14;;;;;;;3.22;1.30;;;;;;;;;;4735059;30;20052;-80
2022/06/11 10:12:43;;;;;;;1.70;1.20;;;;;;;;;;4740120;30;20070;-79
2022/06/11 10:15:24;;;;;;;1.92;1.10;;;;;;;;;;4733814;30;20060;-80
2022/06/11 10:18:00;;;;;;;1.40;1.00;;;;;;;;;;4735281;30;20056;-80
2022/06/11 10:20:29;;;;;;;1.02;1.00;;;;;;;;;;4734556;30;20049;-79
2022/06/11 10:23:03;;;;;;;1.30;1.20;;;;;;;;;;4725676;30;20390;-78
2022/06/11 10:25:33;;;;;;;3.15;1.20;;;;;;;;;;4746770;30;20214;-78
2022/06/11 10:28:10;;;;;;;1.20;1.10;;;;;;;;;;4737430;30;20523;-79
2022/06/11 10:30:40;;;;;;;1.85;0.85;;;;;;;;;;4746613;30;20055;-78
2022/06/11 10:33:17;;;;;;;0.98;0.80;;;;;;;;;;4704395;30;20151;-79
2022/06/11 10:35:54;;;;;;;1.38;1.02;;;;;;;;;;4782566;29;20462;-80
2022/06/11 10:38:48;;;;;;;2.80;1.00;;;;;;;;;;4805482;29;20058;-79
2022/06/11 10:41:35;;;;;;;4.25;0.90;;;;;;;;;;4805291;29;20054;-79
2022/06/11 10:44:23;;;;;;;1.27;0.85;;;;;;;;;;4793334;29;20062;-78
2022/06/11 10:46:52;;;;;;;0.70;0.70;;;;;;;;;;4826727;29;20049;-79
2022/06/11 10:49:24;;;;;;;0.80;0.80;;;;;;;;;;4816017;29;20126;-79
2022/06/11 10:51:59;;;;;;;2.80;0.80;;;;;;;;;;4828059;29;20058;-81
2022/06/11 10:54:27;;;;;;;1.33;0.90;;;;;;;;;;4848771;29;20064;-78
2022/06/11 10:56:57;;;;;;;1.30;1.00;;;;;;;;;;4847868;29;20427;-79
2022/06/11 10:59:29;;;;;;;1.98;0.80;;;;;;;;;;4858777;29;20053;-86
2022/06/11 11:02:20;;;;;;;0.70;0.70;;;;;;;;;;4852147;29;20557;-79
2022/06/11 11:05:08;;;;;;;0.80;0.70;;;;;;;;;;4834601;29;20466;-79
2022/06/11 11:07:50;;;;;;;1.52;0.80;;;;;;;;;;4850615;29;20061;-80
2022/06/11 11:10:20;;;;;;;0.98;0.95;;;;;;;;;;4848824;29;20535;-78
2022/06/11 11:12:49;;;;;;;1.27;1.00;;;;;;;;;;4819497;29;20053;-79
2022/06/11 11:15:18;;;;;;;2.28;0.50;;;;;;;;;;4836870;29;20492;-79
2022/06/11 11:17:47;;;;;;;0.70;0.70;;;;;;;;;;4852265;29;20046;-80
2022/06/11 11:20:29;;;;;;;1.50;0.90;;;;;;;;;;4854375;29;20480;-79
2022/06/11 11:23:00;;;;;;;0.65;0.65;;;;;;;;;;4835288;29;20051;-81
2022/06/11 11:25:31;;;;;;;0.82;0.77;;;;;;;;;;4818651;29;20125;-77
2022/06/11 11:28:00;;;;;;;0.90;0.90;;;;;;;;;;4851234;29;20054;-81
2022/06/11 11:30:38;;;;;;;0.90;0.70;;;;;;;;;;4850283;29;20042;-79
2022/06/11 11:33:23;;;;;;;1.80;0.90;;;;;;;;;;4848881;29;20046;-80
2022/06/11 11:35:59;;;;;;;0.75;0.60;;;;;;;;;;4832197;29;20800;-79
2022/06/11 11:38:27;;;;;;;0.77;0.77;;;;;;;;;;4846031;29;20046;-79
2022/06/11 11:40:59;;;;;;;1.25;0.70;;;;;;;;;;4828445;29;20445;-79
2022/06/11 11:43:34;;;;;;;2.25;0.80;;;;;;;;;;4828315;29;20125;-78
2022/06/11 11:46:04;;;;;;;0.80;0.80;;;;;;;;;;4815806;29;20115;-79
2022/06/11 11:48:34;;;;;;;2.83;1.33;;;;;;;;;;4833763;29;20041;-79
2022/06/11 11:51:08;;;;;;;1.67;0.82;;;;;;;;;;4850305;29;20058;-80
2022/06/11 11:53:46;;;;;;;1.00;0.85;;;;;;;;;;4853279;29;20038;-80
2022/06/11 11:56:31;;;;;;;1.15;0.80;;;;;;;;;;4840042;29;20049;-78
2022/06/11 11:59:05;;;;;;;0.60;0.60;;;;;;;;;;4850356;29;20061;-84
2022/06/11 12:01:33;;;;;;;0.68;0.68;;;;;;;;;;4846155;29;20105;-78
2022/06/11 12:04:02;;;;;;;1.08;1.00;;;;;;;;;;4814374;29;20136;-79
2022/06/11 12:06:42;;;;;;;1.77;0.77;;;;;;;;;;4848149;29;20125;-80
2022/06/11 12:09:22;;;;;;;1.13;0.70;;;;;;;;;;4853346;29;20045;-79
2022/06/11 12:11:57;;;;;;;0.77;0.70;;;;;;;;;;4851012;29;20046;-80
2022/06/11 12:14:29;;;;;;;2.25;0.70;;;;;;;;;;4850630;29;20133;-80
2022/06/11 12:17:01;;;;;;;2.05;0.90;;;;;;;;;;4851230;29;20056;-79
2022/06/11 12:19:33;;;;;;;0.57;0.57;;;;;;;;;;4831554;29;20062;-80
2022/06/11 12:22:09;;;;;;;1.13;0.77;;;;;;;;;;4832932;29;20125;-81
2022/06/11 12:24:42;;;;;;;1.05;0.70;;;;;;;;;;4817664;29;20058;-79
2022/06/11 12:27:16;;;;;;;2.27;0.73;;;;;;;;;;4805399;29;20057;-80
2022/06/11 12:29:54;;;;;;;3.10;0.70;;;;;;;;;;4834404;29;20376;-79
2022/06/11 12:32:28;;;;;;;2.75;0.95;;;;;;;;;;4801537;29;20073;-81
2022/06/11 12:34:56;;;;;;;1.25;0.70;;;;;;;;;;4805068;29;20049;-79
2022/06/11 12:37:28;;;;;;;0.82;0.80;;;;;;;;;;4818393;29;20121;-78
2022/06/11 12:40:06;;;;;;;4.20;1.17;;;;;;;;;;4803368;29;20077;-82
2022/06/11 12:42:42;;;;;;;1.23;0.70;;;;;;;;;;4805258;29;20053;-80
2022/06/11 12:45:13;;;;;;;0.87;0.70;;;;;;;;;;4799614;29;20050;-78
2022/06/11 12:47:41;;;;;;;;;;;;;;;;;;4821770;29;20319;-79
2022/06/11 12:50:42;;;;;;;0.88;0.75;;;;;;;;;;4796260;29;19925;-79
2022/06/11 12:53:28;;;;;;;1.35;1.25;;;;;;;;;;4818787;29;20525;-81
2022/06/11 12:56:14;;;;;;;1.20;0.63;;;;;;;;;;4828398;29;20053;-80
2022/06/11 12:59:00;;;;;;;1.40;0.80;;;;;;;;;;4824859;29;20061;-81
2022/06/11 13:01:30;;;;;;;0.55;0.55;;;;;;;;;;4842395;29;20831;-80
2022/06/11 13:04:06;;;;;;;0.75;0.70;;;;;;;;;;4848276;29;20053;-80
2022/06/11 13:06:46;;;;;;;0.60;0.60;;;;;;;;;;4827190;29;20049;-80
2022/06/11 13:09:20;;;;;;;2.08;0.80;;;;;;;;;;4827837;29;20054;-80
2022/06/11 13:11:53;;;;;;;0.88;0.70;;;;;;;;;;4843792;29;20416;-80
2022/06/11 13:14:30;;;;;;;0.88;0.60;;;;;;;;;;4849946;29;20792;-80
2022/06/11 13:16:57;;;;;;;1.17;0.80;;;;;;;;;;4849032;29;20049;-79
2022/06/11 13:19:25;;;;;;;0.77;0.60;;;;;;;;;;4844775;29;20176;-79
2022/06/11 13:21:52;;;;;;;1.30;0.85;;;;;;;;;;4833340;29;20049;-80
2022/06/11 13:24:38;;;;;;;0.75;0.60;;;;;;;;;;4834063;29;20098;-79
2022/06/11 13:27:05;;;;;;;3.75;0.80;;;;;;;;;;4850705;29;20419;-81
2022/06/11 13:29:35;;;;;;;1.95;0.70;;;;;;;;;;4853594;29;20512;-81
2022/06/11 13:32:16;;;;;;;0.57;0.57;;;;;;;;;;4812599;29;20130;-80
2022/06/11 13:34:50;;;;;;;1.83;0.90;;;;;;;;;;4833286;29;20141;-80
2022/06/11 13:37:27;;;;;;;2.17;0.73;;;;;;;;;;4832208;29;20120;-81
2022/06/11 13:39:54;;;;;;;1.17;0.75;;;;;;;;;;4838348;29;20052;-80
2022/06/11 13:42:21;;;;;;;0.98;0.70;;;;;;;;;;4827050;29;20118;-80
2022/06/11 13:44:57;;;;;;;0.80;0.80;;;;;;;;;;4843081;29;20410;-80
2022/06/11 13:47:41;;;;;;;1.10;1.00;;;;;;;;;;4837236;29;20055;-81
2022/06/11 13:50:08;;;;;;;1.08;0.70;;;;;;;;;;4826674;29;20474;-83
2022/06/11 13:55:31;;;;;;;0.70;0.70;;;;;;;;;;4818108;29;20082;-81
2022/06/11 13:58:17;;;;;;;0.93;0.70;;;;;;;;;;4796335;29;20089;-80
2022/06/11 14:00:46;;;;;;;1.33;0.73;;;;;;;;;;4816931;29;20504;-81
2022/06/11 14:03:37;;;;;;;1.23;0.70;;;;;;;;;;4842938;29;21551;-80
2022/06/11 14:06:06;;;;;;;1.60;0.82;;;;;;;;;;4802089;29;20124;-81
2022/06/11 14:08:42;;;;;;;0.90;0.80;;;;;;;;;;4831785;29;20053;-79
2022/06/11 14:11:28;;;;;;;1.33;0.80;;;;;;;;;;4834091;29;20061;-81
2022/06/11 14:14:22;;;;;;;1.77;0.73;;;;;;;;;;4827073;29;20056;-80
2022/06/11 14:16:49;;;;;;;1.38;0.70;;;;;;;;;;4842638;29;20060;-81
2022/06/11 14:19:17;;;;;;;4.97;0.85;;;;;;;;;;4825834;29;20148;-78
2022/06/11 14:21:55;;;;;;;0.77;0.70;;;;;;;;;;4831023;29;20041;-78
2022/06/11 14:24:41;;;;;;;0.90;0.75;;;;;;;;;;4839979;29;20045;-80
2022/06/11 14:27:27;;;;;;;0.75;0.60;;;;;;;;;;4829747;29;20145;-80
2022/06/11 14:30:21;;;;;;;1.95;0.68;;;;;;;;;;4849026;29;20049;-82
2022/06/11 14:33:00;;;;;;;0.68;0.68;;;;;;;;;;4847702;29;20053;-81
2022/06/11 14:35:36;;;;;;;8.18;7.55;;;;;;;;;;4841683;29;20060;-80
2022/06/11 14:38:18;;;;;;;16.95;15.25;;;;;;;;;;4822522;29;20614;-80
2022/06/11 14:40:46;;;;;;;0.95;0.82;;;;;;;;;;4806370;29;20049;-81
2022/06/11 14:43:19;;;;;;;1.10;1.00;;;;;;;;;;4842200;29;20103;-80
2022/06/11 14:45:49;;;;;;;0.82;0.80;;;;;;;;;;4839287;29;20037;-80
2022/06/11 14:48:21;;;;;;;1.55;0.73;;;;;;;;;;4831781;29;20050;-79
2022/06/11 14:50:51;;;;;;;1.35;0.77;;;;;;;;;;4819962;29;20054;-80
2022/06/11 14:53:24;;;;;;;0.60;0.60;;;;;;;;;;4837024;29;20068;-79
2022/06/11 14:55:54;;;;;;;4.22;1.00;;;;;;;;;;4835564;29;20130;-79
2022/06/11 14:58:54;;;;;;;0.90;0.70;;;;;;;;;;4801468;29;20150;-78
2022/06/11 15:01:30;;;;;;;2.90;0.60;;;;;;;;;;4809725;29;20095;-79
2022/06/11 15:04:14;;;;;;;1.55;0.60;;;;;;;;;;4843954;29;20556;-79
2022/06/11 15:06:50;;;;;;;2.97;0.70;;;;;;;;;;4847435;29;20049;-79
2022/06/11 15:09:33;;;;;;;0.60;0.60;;;;;;;;;;4831879;29;20176;-80
2022/06/11 15:12:19;;;;;;;0.70;0.70;;;;;;;;;;4849939;29;20054;-79
2022/06/11 15:15:18;;;;;;;1.60;0.60;;;;;;;;;;4845483;29;20054;-79
2022/06/11 15:17:48;;;;;;;1.23;0.60;;;;;;;;;;4826118;29;20479;-79
2022/06/11 15:20:36;;;;;;;2.50;0.65;;;;;;;;;;4850859;29;20449;-80
2022/06/11 15:23:12;;;;;;;1.30;0.70;;;;;;;;;;4825935;29;20042;-80
2022/06/11 15:25:40;;;;;;;0.75;0.70;;;;;;;;;;4832702;29;20428;-80
2022/06/11 15:28:09;;;;;;;0.77;0.50;;;;;;;;;;4849642;29;20133;-78
2022/06/11 15:30:39;;;;;;;1.05;0.93;;;;;;;;;;4823672;29;20110;-81
2022/06/11 15:33:13;;;;;;;2.40;0.70;;;;;;;;;;4796657;29;20050;-78
2022/06/11 15:35:53;;;;;;;1.38;0.80;;;;;;;;;;4807386;29;20048;-79
2022/06/11 15:38:26;;;;;;;0.55;0.55;;;;;;;;;;4813343;29;20054;-78
2022/06/11 15:40:56;;;;;;;1.27;0.80;;;;;;;;;;4794852;29;20076;-79
2022/06/11 15:43:25;;;;;;;1.92;0.80;;;;;;;;;;4806209;29;20058;-79
2022/06/11 15:45:54;;;;;;;3.08;0.70;;;;;;;;;;4806628;29;20517;-79
2022/06/11 15:48:34;;;;;;;0.65;0.65;;;;;;;;;;4793397;29;20580;-79
2022/06/11 15:51:02;;;;;;;1.83;1.10;;;;;;;;;;4808388;29;20054;-77
2022/06/11 15:55:11;;;;;;;2.22;0.90;;;;;;;;;;4835808;29;20054;-77
2022/06/11 15:56:36;;;;;;;3.92;0.80;;;;;;;;;;4796637;29;20050;-79
2022/06/11 15:59:24;;;;;;;0.90;0.90;;;;;;;;;;4824288;29;20061;-79
2022/06/11 16:01:53;;;;;;;1.30;1.00;;;;;;;;;;4794298;29;20106;-80
2022/06/11 16:04:23;;;;;;;0.90;0.60;;;;;;;;;;4804108;29;20061;-80
2022/06/11 16:06:55;;;;;;;3.08;1.67;;;;;;;;;;4815666;29;20141;-79
2022/06/11 16:09:25;;;;;;;2.13;1.08;;;;;;;;;;4848036;29;20041;-79
2022/06/11 16:11:54;;;;;;;1.08;0.80;;;;;;;;;;4826143;29;20045;-77
2022/06/11 16:14:26;;;;;;;1.75;0.85;;;;;;;;;;4846047;29;20061;-79
2022/06/11 16:17:01;;;;;;;2.53;0.95;;;;;;;;;;4827302;29;20054;-77
2022/06/11 16:19:30;;;;;;;1.63;0.88;;;;;;;;;;4842534;29;20061;-78
2022/06/11 16:21:59;;;;;;;1.83;0.70;;;;;;;;;;4825565;29;20535;-79
2022/06/11 16:24:28;;;;;;;0.82;0.82;;;;;;;;;;4844145;29;20182;-77
2022/06/11 16:26:57;;;;;;;1.83;0.63;;;;;;;;;;4818789;29;20038;-78
2022/06/11 16:29:25;;;;;;;1.77;1.13;;;;;;;;;;4821715;29;20046;-79
2022/06/11 16:31:53;;;;;;;0.80;0.80;;;;;;;;;;4820205;29;20080;-78
2022/06/11 16:34:22;;;;;;;1.10;0.85;;;;;;;;;;4819670;29;20052;-79
2022/06/11 16:36:51;;;;;;;1.73;1.10;;;;;;;;;;4838268;29;20056;-79
2022/06/11 16:39:32;;;;;;;0.95;0.82;;;;;;;;;;4824320;29;20061;-79
2022/06/11 16:44:49;;;;;;;2.15;0.90;;;;;;;;;;4818008;29;20060;-79
2022/06/11 16:47:19;;;;;;;2.95;0.85;;;;;;;;;;4841986;29;20053;-78
2022/06/11 16:58:29;;;;;;;2.67;1.00;;;;;;;;;;4843174;29;20048;-79
2022/06/11 17:01:04;;;;;;;0.73;0.73;;;;;;;;;;4843739;29;20088;-79
2022/06/11 17:03:38;;;;;;;1.55;0.80;;;;;;;;;;4829638;29;20062;-78
2022/06/11 17:06:21;;;;;;;1.23;1.10;;;;;;;;;;4850106;29;20049;-78
2022/06/11 17:08:48;;;;;;;1.15;0.90;;;;;;;;;;4836536;29;20144;-79
2022/06/11 17:11:18;;;;;;;1.40;0.85;;;;;;;;;;4836891;29;20045;-78
2022/06/11 17:14:04;;;;;;;2.25;0.80;;;;;;;;;;4839528;29;20114;-79
2022/06/11 17:16:33;;;;;;;2.03;0.70;;;;;;;;;;4850397;29;20058;-79
2022/06/11 17:19:00;;;;;;;1.00;0.90;;;;;;;;;;4846519;29;20058;-77
2022/06/11 17:21:31;;;;;;;1.23;0.77;;;;;;;;;;4849808;29;20056;-78
2022/06/11 17:24:00;;;;;;;2.38;1.02;;;;;;;;;;4834492;29;20050;-78
2022/06/11 17:26:37;;;;;;;0.93;0.93;;;;;;;;;;4845950;29;20400;-78
2022/06/11 17:29:05;;;;;;;2.67;0.90;;;;;;;;;;4830847;29;20056;-79